Terminal Aerodrome Forecast
Issued by NWS

Home | Current Version | Previous Version | Text Only | Print | Product List | Glossary On
Versions: 1 2 3 4 5 6 7 8 9 10 11 12 13 14 15 16 17 18 19 20 21 22 23 24 25 26 27 28 29 30 31 32 33 34 35 36
000
FTUS45 KLKN 300300 AAB
TAFWMC
TAF AMD
KWMC 300300Z 3003/3024 35006KT P6SM VCSH SCT080 BKN120
     FM301200 VRB03KT P6SM FEW120 SCT200
     FM302100 34007KT P6SM VCTS BKN090CB=

USA.gov is the U.S. government's official web portal to all federal, state and local government web resources and services.